Terminal Aerodrome Forecast
Issued by NWS Charleston, WV

Current Version | Previous Version | Graphics & Text | Print | Product List | Glossary On
Versions: 1 2 3 4 5 6 7 8 9 10 11 12 13 14 15 16 17 18 19 20 21 22 23 24
000
FTUS41 KRLX 100630 CCA
TAFHTS
TAF COR
KHTS 100630Z 1007/1106 26010G17KT 6SM -SHSN OVC025
     FM101000 25008KT P6SM BKN025
     FM101300 24007KT P6SM BKN060
     FM102300 22006KT P6SM BKN080=

USA.gov is the U.S. government's official web portal to all federal, state and local government web resources and services.